sensor_id;sensor_type;location;lat;lon;timestamp;temperature;humidity
18266;DHT22;9259;48.194;16.322;2022-08-18T00:00:31;24.10;99.90
18266;DHT22;9259;48.194;16.322;2022-08-18T00:03:05;24.10;99.90
18266;DHT22;9259;48.194;16.322;2022-08-18T00:05:35;24.10;99.90
18266;DHT22;9259;48.194;16.322;2022-08-18T00:08:04;24.10;99.90
18266;DHT22;9259;48.194;16.322;2022-08-18T00:10:33;24.10;99.90
18266;DHT22;9259;48.194;16.322;2022-08-18T00:13:01;24.10;99.90
18266;DHT22;9259;48.194;16.322;2022-08-18T00:15:29;24.10;99.90
18266;DHT22;9259;48.194;16.322;2022-08-18T00:17:56;24.20;99.90
18266;DHT22;9259;48.194;16.322;2022-08-18T00:20:24;24.20;99.90
18266;DHT22;9259;48.194;16.322;2022-08-18T00:22:54;24.30;99.90
18266;DHT22;9259;48.194;16.322;2022-08-18T00:25:23;24.30;99.90
18266;DHT22;9259;48.194;16.322;2022-08-18T00:27:51;24.30;99.90
18266;DHT22;9259;48.194;16.322;2022-08-18T00:30:20;24.40;99.90
18266;DHT22;9259;48.194;16.322;2022-08-18T00:32:50;24.40;99.90
18266;DHT22;9259;48.194;16.322;2022-08-18T00:35:20;24.30;99.90
18266;DHT22;9259;48.194;16.322;2022-08-18T00:37:54;24.20;99.90
18266;DHT22;9259;48.194;16.322;2022-08-18T00:40:28;24.30;99.90
18266;DHT22;9259;48.194;16.322;2022-08-18T00:42:59;24.30;99.90
18266;DHT22;9259;48.194;16.322;2022-08-18T00:45:30;24.30;99.90
18266;DHT22;9259;48.194;16.322;2022-08-18T00:48:02;24.30;99.90
18266;DHT22;9259;48.194;16.322;2022-08-18T00:50:32;24.30;99.90
18266;DHT22;9259;48.194;16.322;2022-08-18T00:53:09;24.20;99.90
18266;DHT22;9259;48.194;16.322;2022-08-18T00:55:39;24.10;99.90
18266;DHT22;9259;48.194;16.322;2022-08-18T00:58:10;24.10;99.90
18266;DHT22;9259;48.194;16.322;2022-08-18T01:00:41;24.00;99.90
18266;DHT22;9259;48.194;16.322;2022-08-18T01:03:15;23.90;99.90
18266;DHT22;9259;48.194;16.322;2022-08-18T01:05:47;23.70;99.90
18266;DHT22;9259;48.194;16.322;2022-08-18T01:08:23;23.70;99.90
18266;DHT22;9259;48.194;16.322;2022-08-18T01:10:52;23.60;99.90
18266;DHT22;9259;48.194;16.322;2022-08-18T01:13:28;23.60;99.90
18266;DHT22;9259;48.194;16.322;2022-08-18T01:15:58;23.50;99.90
18266;DHT22;9259;48.194;16.322;2022-08-18T01:18:47;23.40;99.90
18266;DHT22;9259;48.194;16.322;2022-08-18T01:21:35;23.30;99.90
18266;DHT22;9259;48.194;16.322;2022-08-18T01:24:23;23.30;99.90
18266;DHT22;9259;48.194;16.322;2022-08-18T01:27:08;23.40;99.90
18266;DHT22;9259;48.194;16.322;2022-08-18T01:29:43;23.30;99.90
18266;DHT22;9259;48.194;16.322;2022-08-18T01:32:14;23.30;99.90
18266;DHT22;9259;48.194;16.322;2022-08-18T01:34:45;23.30;99.90
18266;DHT22;9259;48.194;16.322;2022-08-18T01:37:15;23.30;99.90
18266;DHT22;9259;48.194;16.322;2022-08-18T01:39:46;23.30;99.90
18266;DHT22;9259;48.194;16.322;2022-08-18T01:42:15;23.30;99.90
18266;DHT22;9259;48.194;16.322;2022-08-18T01:44:44;23.30;99.90
18266;DHT22;9259;48.194;16.322;2022-08-18T01:47:13;23.40;99.90
18266;DHT22;9259;48.194;16.322;2022-08-18T01:49:42;23.40;99.90
18266;DHT22;9259;48.194;16.322;2022-08-18T01:52:14;23.50;99.90
18266;DHT22;9259;48.194;16.322;2022-08-18T01:54:48;23.50;99.90
18266;DHT22;9259;48.194;16.322;2022-08-18T01:57:17;23.50;99.90
18266;DHT22;9259;48.194;16.322;2022-08-18T01:59:45;23.50;99.90
18266;DHT22;9259;48.194;16.322;2022-08-18T02:02:16;23.40;99.90
18266;DHT22;9259;48.194;16.322;2022-08-18T02:04:50;23.30;99.90
18266;DHT22;9259;48.194;16.322;2022-08-18T02:07:20;23.30;99.90
18266;DHT22;9259;48.194;16.322;2022-08-18T02:09:49;23.30;99.90
18266;DHT22;9259;48.194;16.322;2022-08-18T02:12:17;23.30;99.90
18266;DHT22;9259;48.194;16.322;2022-08-18T02:14:46;23.30;99.90
18266;DHT22;9259;48.194;16.322;2022-08-18T02:17:13;23.20;99.90
18266;DHT22;9259;48.194;16.322;2022-08-18T02:19:43;23.20;99.90
18266;DHT22;9259;48.194;16.322;2022-08-18T02:22:14;23.20;99.90
18266;DHT22;9259;48.194;16.322;2022-08-18T02:24:45;23.10;99.90
18266;DHT22;9259;48.194;16.322;2022-08-18T02:27:15;23.00;99.90
18266;DHT22;9259;48.194;16.322;2022-08-18T02:29:43;23.10;99.90
18266;DHT22;9259;48.194;16.322;2022-08-18T02:32:11;23.10;99.90
18266;DHT22;9259;48.194;16.322;2022-08-18T02:34:39;23.20;99.90
18266;DHT22;9259;48.194;16.322;2022-08-18T02:37:08;23.20;99.90
18266;DHT22;9259;48.194;16.322;2022-08-18T02:39:36;23.20;99.90
18266;DHT22;9259;48.194;16.322;2022-08-18T02:42:05;23.30;99.90
18266;DHT22;9259;48.194;16.322;2022-08-18T02:44:35;23.30;99.90
18266;DHT22;9259;48.194;16.322;2022-08-18T02:47:03;23.20;99.90
18266;DHT22;9259;48.194;16.322;2022-08-18T02:49:31;23.30;99.90
18266;DHT22;9259;48.194;16.322;2022-08-18T02:51:59;23.30;99.90
18266;DHT22;9259;48.194;16.322;2022-08-18T02:54:27;23.30;99.90
18266;DHT22;9259;48.194;16.322;2022-08-18T02:56:55;23.40;99.90
18266;DHT22;9259;48.194;16.322;2022-08-18T02:59:25;23.40;99.90
18266;DHT22;9259;48.194;16.322;2022-08-18T03:01:55;23.40;99.90
18266;DHT22;9259;48.194;16.322;2022-08-18T03:04:25;23.40;99.90
18266;DHT22;9259;48.194;16.322;2022-08-18T03:06:56;23.40;99.90
18266;DHT22;9259;48.194;16.322;2022-08-18T03:09:25;23.40;99.90
18266;DHT22;9259;48.194;16.322;2022-08-18T03:11:53;23.30;99.90
18266;DHT22;9259;48.194;16.322;2022-08-18T03:14:21;23.30;99.90
18266;DHT22;9259;48.194;16.322;2022-08-18T03:16:49;23.30;99.90
18266;DHT22;9259;48.194;16.322;2022-08-18T03:19:18;23.40;99.90
18266;DHT22;9259;48.194;16.322;2022-08-18T03:21:47;23.30;99.90
18266;DHT22;9259;48.194;16.322;2022-08-18T03:24:15;23.30;99.90
18266;DHT22;9259;48.194;16.322;2022-08-18T03:29:19;23.20;99.90
18266;DHT22;9259;48.194;16.322;2022-08-18T03:31:47;23.00;99.90
18266;DHT22;9259;48.194;16.322;2022-08-18T03:34:18;23.00;99.90
18266;DHT22;9259;48.194;16.322;2022-08-18T03:36:50;23.00;99.90
18266;DHT22;9259;48.194;16.322;2022-08-18T03:39:18;23.10;99.90
18266;DHT22;9259;48.194;16.322;2022-08-18T03:41:50;23.00;99.90
18266;DHT22;9259;48.194;16.322;2022-08-18T03:44:20;23.00;99.90
18266;DHT22;9259;48.194;16.322;2022-08-18T03:46:49;23.00;99.90
18266;DHT22;9259;48.194;16.322;2022-08-18T03:49:19;22.90;99.90
18266;DHT22;9259;48.194;16.322;2022-08-18T03:51:48;23.00;99.90
18266;DHT22;9259;48.194;16.322;2022-08-18T03:54:17;23.10;99.90
18266;DHT22;9259;48.194;16.322;2022-08-18T03:56:46;23.10;99.90
18266;DHT22;9259;48.194;16.322;2022-08-18T03:59:16;23.10;99.90
18266;DHT22;9259;48.194;16.322;2022-08-18T04:01:47;23.20;99.90
18266;DHT22;9259;48.194;16.322;2022-08-18T04:04:24;23.20;99.90
18266;DHT22;9259;48.194;16.322;2022-08-18T04:06:57;23.20;99.90
18266;DHT22;9259;48.194;16.322;2022-08-18T04:09:31;23.20;99.90
18266;DHT22;9259;48.194;16.322;2022-08-18T04:12:18;23.20;99.90
18266;DHT22;9259;48.194;16.322;2022-08-18T04:15:05;23.20;99.90
18266;DHT22;9259;48.194;16.322;2022-08-18T04:17:52;23.30;99.90
18266;DHT22;9259;48.194;16.322;2022-08-18T04:20:39;23.30;99.90
18266;DHT22;9259;48.194;16.322;2022-08-18T04:23:26;23.30;99.90
18266;DHT22;9259;48.194;16.322;2022-08-18T04:25:57;23.40;99.90
18266;DHT22;9259;48.194;16.322;2022-08-18T04:28:27;23.40;99.90
18266;DHT22;9259;48.194;16.322;2022-08-18T04:30:55;23.30;99.90
18266;DHT22;9259;48.194;16.322;2022-08-18T04:33:25;23.20;99.90
18266;DHT22;9259;48.194;16.322;2022-08-18T04:35:55;23.20;99.90
18266;DHT22;9259;48.194;16.322;2022-08-18T04:38:23;23.20;99.90
18266;DHT22;9259;48.194;16.322;2022-08-18T04:40:51;23.30;99.90
18266;DHT22;9259;48.194;16.322;2022-08-18T04:43:18;23.30;99.90
18266;DHT22;9259;48.194;16.322;2022-08-18T04:45:47;23.50;99.90
18266;DHT22;9259;48.194;16.322;2022-08-18T04:48:16;23.60;99.90
18266;DHT22;9259;48.194;16.322;2022-08-18T04:50:44;23.70;99.90
18266;DHT22;9259;48.194;16.322;2022-08-18T04:53:13;23.70;99.90
18266;DHT22;9259;48.194;16.322;2022-08-18T04:56:14;23.80;99.90
18266;DHT22;9259;48.194;16.322;2022-08-18T04:58:45;24.00;99.90
18266;DHT22;9259;48.194;16.322;2022-08-18T05:01:16;24.00;99.90
18266;DHT22;9259;48.194;16.322;2022-08-18T05:03:44;24.10;99.90
18266;DHT22;9259;48.194;16.322;2022-08-18T05:06:12;24.20;99.90
18266;DHT22;9259;48.194;16.322;2022-08-18T05:08:41;24.20;99.90
18266;DHT22;9259;48.194;16.322;2022-08-18T05:11:09;24.20;99.90
18266;DHT22;9259;48.194;16.322;2022-08-18T05:13:37;24.30;99.90
18266;DHT22;9259;48.194;16.322;2022-08-18T05:16:05;24.40;99.90
18266;DHT22;9259;48.194;16.322;2022-08-18T05:18:35;24.50;99.90
18266;DHT22;9259;48.194;16.322;2022-08-18T05:21:06;24.50;99.90
18266;DHT22;9259;48.194;16.322;2022-08-18T05:23:40;24.60;99.90
18266;DHT22;9259;48.194;16.322;2022-08-18T05:26:09;24.70;99.90
18266;DHT22;9259;48.194;16.322;2022-08-18T05:28:38;24.80;99.90
18266;DHT22;9259;48.194;16.322;2022-08-18T05:31:08;24.80;99.90
18266;DHT22;9259;48.194;16.322;2022-08-18T05:33:40;24.90;99.90
18266;DHT22;9259;48.194;16.322;2022-08-18T05:36:19;25.00;99.90
18266;DHT22;9259;48.194;16.322;2022-08-18T05:39:09;25.10;99.90
18266;DHT22;9259;48.194;16.322;2022-08-18T05:41:44;25.00;99.90
18266;DHT22;9259;48.194;16.322;2022-08-18T05:44:18;24.70;99.90
18266;DHT22;9259;48.194;16.322;2022-08-18T05:46:51;24.90;99.90
18266;DHT22;9259;48.194;16.322;2022-08-18T05:49:21;25.10;99.90
18266;DHT22;9259;48.194;16.322;2022-08-18T05:51:55;25.00;99.90
18266;DHT22;9259;48.194;16.322;2022-08-18T05:54:29;25.00;99.90
18266;DHT22;9259;48.194;16.322;2022-08-18T05:57:21;25.00;99.90
18266;DHT22;9259;48.194;16.322;2022-08-18T05:59:51;25.10;99.90
18266;DHT22;9259;48.194;16.322;2022-08-18T06:02:29;25.10;99.90
18266;DHT22;9259;48.194;16.322;2022-08-18T06:05:02;25.40;99.90
18266;DHT22;9259;48.194;16.322;2022-08-18T06:07:36;25.70;99.90
18266;DHT22;9259;48.194;16.322;2022-08-18T06:10:10;25.70;99.90
18266;DHT22;9259;48.194;16.322;2022-08-18T06:12:41;25.90;99.90
18266;DHT22;9259;48.194;16.322;2022-08-18T06:15:13;26.00;99.90
18266;DHT22;9259;48.194;16.322;2022-08-18T06:18:10;26.20;99.90
18266;DHT22;9259;48.194;16.322;2022-08-18T06:20:59;26.50;99.90
18266;DHT22;9259;48.194;16.322;2022-08-18T06:23:53;26.70;99.90
18266;DHT22;9259;48.194;16.322;2022-08-18T06:26:32;26.90;99.90
18266;DHT22;9259;48.194;16.322;2022-08-18T06:29:13;27.00;99.90
18266;DHT22;9259;48.194;16.322;2022-08-18T06:31:55;26.80;99.90
18266;DHT22;9259;48.194;16.322;2022-08-18T06:34:36;26.90;99.90
18266;DHT22;9259;48.194;16.322;2022-08-18T06:37:19;27.10;99.90
18266;DHT22;9259;48.194;16.322;2022-08-18T06:39:51;27.10;99.90
18266;DHT22;9259;48.194;16.322;2022-08-18T06:42:23;27.10;99.90
18266;DHT22;9259;48.194;16.322;2022-08-18T06:44:59;27.30;99.90
18266;DHT22;9259;48.194;16.322;2022-08-18T06:47:38;26.90;99.90
18266;DHT22;9259;48.194;16.322;2022-08-18T06:50:16;26.80;99.90
18266;DHT22;9259;48.194;16.322;2022-08-18T06:52:52;26.80;99.90
18266;DHT22;9259;48.194;16.322;2022-08-18T06:55:32;27.00;99.90
18266;DHT22;9259;48.194;16.322;2022-08-18T06:58:07;27.10;99.90
18266;DHT22;9259;48.194;16.322;2022-08-18T07:00:55;27.30;99.90
18266;DHT22;9259;48.194;16.322;2022-08-18T07:03:41;27.40;99.90
18266;DHT22;9259;48.194;16.322;2022-08-18T07:06:23;27.50;99.90
18266;DHT22;9259;48.194;16.322;2022-08-18T07:09:16;27.70;99.90
18266;DHT22;9259;48.194;16.322;2022-08-18T07:12:01;27.70;99.90
18266;DHT22;9259;48.194;16.322;2022-08-18T07:14:41;27.60;99.90
18266;DHT22;9259;48.194;16.322;2022-08-18T07:17:19;27.70;99.90
18266;DHT22;9259;48.194;16.322;2022-08-18T07:19:56;27.90;99.90
18266;DHT22;9259;48.194;16.322;2022-08-18T07:22:30;28.00;99.90
18266;DHT22;9259;48.194;16.322;2022-08-18T07:25:03;28.10;99.90
18266;DHT22;9259;48.194;16.322;2022-08-18T07:27:43;28.00;99.90
18266;DHT22;9259;48.194;16.322;2022-08-18T07:30:27;28.20;99.90
18266;DHT22;9259;48.194;16.322;2022-08-18T07:33:01;28.60;99.90
18266;DHT22;9259;48.194;16.322;2022-08-18T07:35:42;28.70;99.90
18266;DHT22;9259;48.194;16.322;2022-08-18T07:38:16;28.40;99.90
18266;DHT22;9259;48.194;16.322;2022-08-18T07:40:55;28.50;99.90
18266;DHT22;9259;48.194;16.322;2022-08-18T07:43:35;28.20;99.90
18266;DHT22;9259;48.194;16.322;2022-08-18T07:46:10;28.00;99.90
18266;DHT22;9259;48.194;16.322;2022-08-18T07:48:41;28.10;99.90
18266;DHT22;9259;48.194;16.322;2022-08-18T07:51:14;27.70;99.90
18266;DHT22;9259;48.194;16.322;2022-08-18T07:53:55;27.80;99.90
18266;DHT22;9259;48.194;16.322;2022-08-18T07:56:34;28.10;99.90
18266;DHT22;9259;48.194;16.322;2022-08-18T07:59:12;28.60;99.90
18266;DHT22;9259;48.194;16.322;2022-08-18T08:01:50;29.00;99.90
18266;DHT22;9259;48.194;16.322;2022-08-18T08:04:27;29.50;99.90
18266;DHT22;9259;48.194;16.322;2022-08-18T08:07:04;29.70;99.90
18266;DHT22;9259;48.194;16.322;2022-08-18T08:09:43;30.60;99.90
18266;DHT22;9259;48.194;16.322;2022-08-18T08:12:21;31.10;99.90
18266;DHT22;9259;48.194;16.322;2022-08-18T08:15:03;32.20;99.90
18266;DHT22;9259;48.194;16.322;2022-08-18T08:17:43;33.10;99.70
18266;DHT22;9259;48.194;16.322;2022-08-18T08:23:04;33.80;97.70
18266;DHT22;9259;48.194;16.322;2022-08-18T08:25:46;33.70;95.80
18266;DHT22;9259;48.194;16.322;2022-08-18T08:31:08;34.80;94.50
18266;DHT22;9259;48.194;16.322;2022-08-18T08:33:41;35.70;92.50
18266;DHT22;9259;48.194;16.322;2022-08-18T08:36:16;36.40;91.00
18266;DHT22;9259;48.194;16.322;2022-08-18T08:38:48;36.70;88.70
18266;DHT22;9259;48.194;16.322;2022-08-18T09:48:01;35.70;90.00
18266;DHT22;9259;48.194;16.322;2022-08-18T09:50:53;35.70;88.20
18266;DHT22;9259;48.194;16.322;2022-08-18T10:06:02;35.40;87.50
18266;DHT22;9259;48.194;16.322;2022-08-18T10:08:53;35.10;87.40
18266;DHT22;9259;48.194;16.322;2022-08-18T10:11:41;35.00;87.60
18266;DHT22;9259;48.194;16.322;2022-08-18T10:14:38;35.10;88.60
18266;DHT22;9259;48.194;16.322;2022-08-18T10:17:44;34.90;88.70
18266;DHT22;9259;48.194;16.322;2022-08-18T10:20:37;34.60;91.80
18266;DHT22;9259;48.194;16.322;2022-08-18T10:23:08;34.60;89.70
18266;DHT22;9259;48.194;16.322;2022-08-18T10:25:40;34.80;87.40
18266;DHT22;9259;48.194;16.322;2022-08-18T10:31:18;35.20;88.20
18266;DHT22;9259;48.194;16.322;2022-08-18T10:34:07;35.60;87.80
18266;DHT22;9259;48.194;16.322;2022-08-18T10:36:45;34.90;87.80
18266;DHT22;9259;48.194;16.322;2022-08-18T10:39:18;35.40;86.00
18266;DHT22;9259;48.194;16.322;2022-08-18T10:41:55;35.20;86.60
18266;DHT22;9259;48.194;16.322;2022-08-18T10:44:26;35.60;87.00
18266;DHT22;9259;48.194;16.322;2022-08-18T10:46:57;35.80;86.40
18266;DHT22;9259;48.194;16.322;2022-08-18T10:49:28;35.20;88.00
18266;DHT22;9259;48.194;16.322;2022-08-18T10:52:20;36.20;85.60
18266;DHT22;9259;48.194;16.322;2022-08-18T10:55:35;37.00;83.90
18266;DHT22;9259;48.194;16.322;2022-08-18T11:04:25;37.10;81.90
18266;DHT22;9259;48.194;16.322;2022-08-18T11:07:03;36.60;84.10
18266;DHT22;9259;48.194;16.322;2022-08-18T11:09:36;36.50;86.00
18266;DHT22;9259;48.194;16.322;2022-08-18T11:12:05;36.80;83.90
18266;DHT22;9259;48.194;16.322;2022-08-18T11:17:35;37.20;82.90
18266;DHT22;9259;48.194;16.322;2022-08-18T11:20:14;37.90;83.50
18266;DHT22;9259;48.194;16.322;2022-08-18T16:40:05;38.30;80.60
18266;DHT22;9259;48.194;16.322;2022-08-18T16:42:33;30.70;92.20
18266;DHT22;9259;48.194;16.322;2022-08-18T16:52:34;30.10;95.10
18266;DHT22;9259;48.194;16.322;2022-08-18T16:55:07;29.50;98.80
18266;DHT22;9259;48.194;16.322;2022-08-18T16:57:37;29.20;96.50
18266;DHT22;9259;48.194;16.322;2022-08-18T17:00:22;29.10;96.90
18266;DHT22;9259;48.194;16.322;2022-08-18T17:03:09;29.00;96.80
18266;DHT22;9259;48.194;16.322;2022-08-18T17:05:59;29.00;96.20
18266;DHT22;9259;48.194;16.322;2022-08-18T17:08:27;28.80;96.00
18266;DHT22;9259;48.194;16.322;2022-08-18T17:10:59;28.40;96.30
18266;DHT22;9259;48.194;16.322;2022-08-18T17:13:27;28.20;97.30
18266;DHT22;9259;48.194;16.322;2022-08-18T17:15:56;28.10;97.70
18266;DHT22;9259;48.194;16.322;2022-08-18T17:18:25;28.00;98.60
18266;DHT22;9259;48.194;16.322;2022-08-18T17:20:53;27.70;99.20
18266;DHT22;9259;48.194;16.322;2022-08-18T17:23:21;27.50;99.90
18266;DHT22;9259;48.194;16.322;2022-08-18T17:25:49;27.50;99.90
18266;DHT22;9259;48.194;16.322;2022-08-18T17:28:18;27.50;99.90
18266;DHT22;9259;48.194;16.322;2022-08-18T17:30:50;27.40;99.90
18266;DHT22;9259;48.194;16.322;2022-08-18T17:33:25;27.20;99.90
18266;DHT22;9259;48.194;16.322;2022-08-18T17:35:57;27.10;99.90
18266;DHT22;9259;48.194;16.322;2022-08-18T17:38:31;26.90;99.90
18266;DHT22;9259;48.194;16.322;2022-08-18T17:41:05;26.70;99.90
18266;DHT22;9259;48.194;16.322;2022-08-18T17:43:35;26.80;99.90
18266;DHT22;9259;48.194;16.322;2022-08-18T17:46:09;26.80;99.90
18266;DHT22;9259;48.194;16.322;2022-08-18T17:48:42;26.80;99.90
18266;DHT22;9259;48.194;16.322;2022-08-18T19:29:10;26.80;99.90
18266;DHT22;9259;48.194;16.322;2022-08-18T19:31:47;25.40;99.90
18266;DHT22;9259;48.194;16.322;2022-08-18T19:34:19;25.40;99.90
18266;DHT22;9259;48.194;16.322;2022-08-18T19:36:54;25.30;99.90
18266;DHT22;9259;48.194;16.322;2022-08-18T19:39:31;25.30;99.90
18266;DHT22;9259;48.194;16.322;2022-08-18T19:42:08;25.30;99.90
18266;DHT22;9259;48.194;16.322;2022-08-18T19:44:43;25.40;99.90
18266;DHT22;9259;48.194;16.322;2022-08-18T19:47:18;25.30;99.90
18266;DHT22;9259;48.194;16.322;2022-08-18T19:50:12;25.20;99.90
